Time;durP1;ratioP1;P1;durP2;ratioP2;P2;SDS_P1;SDS_P2;PMS_P1;PMS_P2;Temp;Humidity;BMP_temperature;BMP_pressure;BME280_temperature;BME280_humidity;BME280_pressure;Samples;Min_cycle;Max_cycle;Signal;HPM_P1;HPM_P2
2021/12/04 00:02:49;;;;;;;3.63;2.45;;;;;;;0.51;100.00;97098.47;10480340;28;20558;-79
2021/12/04 00:07:52;;;;;;;4.53;2.58;;;;;;;0.47;100.00;97083.78;10464791;28;20055;-80
2021/12/04 00:12:55;;;;;;;6.60;2.55;;;;;;;0.47;100.00;97081.13;10464037;28;20080;-80
2021/12/04 00:18:00;;;;;;;7.75;3.13;;;;;;;0.47;100.00;97075.00;10460301;28;20527;-80
2021/12/04 00:23:03;;;;;;;6.53;2.78;;;;;;;0.45;100.00;97072.47;10457356;28;20045;-80
2021/12/04 00:28:06;;;;;;;5.68;3.10;;;;;;;0.47;100.00;97075.84;10453555;28;20507;-80
2021/12/04 00:33:15;;;;;;;6.00;2.95;;;;;;;0.47;100.00;97072.38;10448114;28;20075;-82
2021/12/04 00:49:12;;;;;;;5.10;2.60;;;;;;;0.50;100.00;97069.44;10457318;28;20048;-81
2021/12/04 00:54:15;;;;;;;4.95;2.70;;;;;;;0.51;100.00;97064.03;10459735;28;20049;-81
2021/12/04 00:59:20;;;;;;;5.93;2.97;;;;;;;0.51;100.00;97053.41;10467029;28;20061;-82
2021/12/04 01:04:24;;;;;;;5.47;2.95;;;;;;;0.51;100.00;97066.66;10457697;28;20053;-82
2021/12/04 01:09:28;;;;;;;8.43;3.03;;;;;;;0.52;100.00;97073.66;10453063;28;20060;-81
2021/12/04 01:14:32;;;;;;;7.38;2.85;;;;;;;0.56;100.00;97064.44;10459722;28;20052;-82
2021/12/04 01:19:37;;;;;;;4.30;2.72;;;;;;;0.58;100.00;97051.91;10455621;28;20060;-80
2021/12/04 01:24:40;;;;;;;4.82;2.72;;;;;;;0.60;100.00;97049.97;10450586;28;20050;-80
2021/12/04 01:29:43;;;;;;;5.55;2.92;;;;;;;0.65;100.00;97040.78;10476030;28;20057;-81
2021/12/04 01:34:47;;;;;;;5.72;3.30;;;;;;;0.65;100.00;97041.63;10462473;28;20136;-82
2021/12/04 01:39:51;;;;;;;6.53;3.08;;;;;;;0.66;100.00;97032.69;10462016;28;20140;-81
2021/12/04 01:44:54;;;;;;;6.60;3.22;;;;;;;0.65;100.00;97020.41;10458676;28;20045;-81
2021/12/04 01:50:00;;;;;;;5.03;3.22;;;;;;;0.64;100.00;97023.22;10477152;28;20052;-82
2021/12/04 01:55:04;;;;;;;6.97;2.97;;;;;;;0.62;100.00;97025.97;10454777;28;20088;-81
2021/12/04 02:00:08;;;;;;;6.03;3.50;;;;;;;0.61;100.00;97027.78;10473846;28;20044;-82
2021/12/04 02:05:16;;;;;;;5.22;3.13;;;;;;;0.55;100.00;97028.31;10453726;28;20045;-83
2021/12/04 02:10:19;;;;;;;5.35;3.45;;;;;;;0.45;100.00;97025.63;10462939;28;20080;-82
2021/12/04 02:15:22;;;;;;;7.45;4.20;;;;;;;0.39;100.00;97028.81;10468190;28;20045;-82
2021/12/04 02:20:28;;;;;;;9.90;4.85;;;;;;;0.37;100.00;97014.84;10454345;28;20053;-81
2021/12/04 02:25:32;;;;;;;9.23;4.78;;;;;;;0.34;100.00;97014.28;10453283;28;20243;-82
2021/12/04 02:30:38;;;;;;;13.60;5.35;;;;;;;0.17;100.00;97000.69;10442341;28;20384;-81
2021/12/04 02:35:47;;;;;;;9.40;5.60;;;;;;;0.07;100.00;96991.81;10439671;28;20412;-79
2021/12/04 02:40:51;;;;;;;13.48;5.95;;;;;;;-0.02;100.00;96981.06;10453495;28;20064;-80
2021/12/04 02:46:01;;;;;;;11.03;6.13;;;;;;;-0.08;100.00;96980.72;10457922;28;20037;-82
2021/12/04 02:51:06;;;;;;;8.70;6.72;;;;;;;-0.12;100.00;96974.88;10473641;28;20071;-82
2021/12/04 02:56:10;;;;;;;14.10;6.72;;;;;;;-0.15;100.00;96967.19;10467222;28;20028;-84
2021/12/04 03:01:13;;;;;;;11.05;7.03;;;;;;;-0.20;100.00;96946.41;10458577;28;20052;-82
2021/12/04 03:06:18;;;;;;;12.00;7.38;;;;;;;-0.19;100.00;96947.25;10467024;28;20049;-81
2021/12/04 03:11:21;;;;;;;11.95;7.30;;;;;;;-0.26;100.00;96946.06;10459121;28;20056;-81
2021/12/04 03:16:25;;;;;;;12.05;6.78;;;;;;;-0.24;100.00;96941.50;10477007;28;20061;-82
2021/12/04 03:21:30;;;;;;;13.23;7.55;;;;;;;-0.26;100.00;96941.63;10456794;28;20047;-81
2021/12/04 03:26:35;;;;;;;10.55;7.38;;;;;;;-0.28;100.00;96937.41;10450487;28;20045;-81
2021/12/04 03:31:52;;;;;;;13.15;8.52;;;;;;;-0.32;100.00;96923.63;10445640;28;20053;-80
2021/12/04 03:42:19;;;;;;;13.90;9.45;;;;;;;-0.38;100.00;96924.16;10432782;28;20081;-82
2021/12/04 03:47:23;;;;;;;15.93;10.50;;;;;;;-0.37;100.00;96909.94;10448376;28;20053;-79
2021/12/04 03:52:27;;;;;;;19.40;10.02;;;;;;;-0.37;100.00;96902.84;10433955;28;20141;-84
2021/12/04 03:57:30;;;;;;;16.80;10.05;;;;;;;-0.42;100.00;96905.06;10438910;28;20046;-85
2021/12/04 04:02:33;;;;;;;14.40;9.93;;;;;;;-0.43;100.00;96890.16;10442448;28;20120;-82
2021/12/04 04:07:38;;;;;;;21.65;11.38;;;;;;;-0.44;100.00;96901.69;10430753;28;20107;-81
2021/12/04 04:12:41;;;;;;;21.48;10.73;;;;;;;-0.45;100.00;96889.44;10427653;28;20045;-81
2021/12/04 04:17:44;;;;;;;18.67;11.50;;;;;;;-0.44;100.00;96879.69;10425903;28;20059;-81
2021/12/04 04:22:50;;;;;;;18.38;10.65;;;;;;;-0.44;100.00;96884.97;10425384;28;20050;-81
2021/12/04 04:27:53;;;;;;;20.60;11.43;;;;;;;-0.44;100.00;96869.94;10432809;28;20489;-81
2021/12/04 04:32:56;;;;;;;18.45;12.93;;;;;;;-0.39;100.00;96872.19;10434744;28;20136;-81
2021/12/04 04:38:10;;;;;;;19.85;11.82;;;;;;;-0.38;100.00;96861.47;10435234;28;20135;-81
2021/12/04 04:59:59;;;;;;;19.65;12.70;;;;;;;-0.33;100.00;96856.63;10422261;28;20144;-80
2021/12/04 05:10:51;;;;;;;16.35;11.45;;;;;;;-0.32;100.00;96860.97;10438103;28;20109;-79
2021/12/04 05:15:58;;;;;;;19.55;12.70;;;;;;;-0.32;100.00;96847.72;10443676;28;20400;-79
2021/12/04 05:21:05;;;;;;;19.60;11.32;;;;;;;-0.30;100.00;96852.06;10442964;28;20282;-79
2021/12/04 05:26:12;;;;;;;17.92;11.98;;;;;;;-0.32;100.00;96847.72;10419870;28;20038;-79
2021/12/04 05:31:16;;;;;;;21.50;12.30;;;;;;;-0.33;100.00;96846.06;10434379;28;20050;-80
2021/12/04 05:36:20;;;;;;;20.85;14.30;;;;;;;-0.28;100.00;96842.16;10424945;28;20099;-80
2021/12/04 05:41:25;;;;;;;19.65;13.75;;;;;;;-0.27;100.00;96839.41;10430211;28;20052;-80
2021/12/04 05:46:34;;;;;;;19.42;14.35;;;;;;;-0.27;100.00;96835.91;10420075;28;20136;-80
2021/12/04 05:51:52;;;;;;;18.50;13.02;;;;;;;-0.28;100.00;96820.97;10444383;28;20054;-79
2021/12/04 05:56:57;;;;;;;22.05;14.20;;;;;;;-0.26;100.00;96813.75;10434723;28;20077;-79
2021/12/04 06:02:01;;;;;;;20.15;13.63;;;;;;;-0.27;100.00;96817.38;10443041;28;20076;-78
2021/12/04 06:07:05;;;;;;;19.90;13.82;;;;;;;-0.23;100.00;96830.19;10511630;22;20058;-60
2021/12/04 06:12:10;;;;;;;20.75;14.45;;;;;;;-0.20;100.00;96823.81;10527579;28;20058;-63
2021/12/04 06:17:14;;;;;;;21.17;13.73;;;;;;;-0.22;100.00;96821.28;10504168;28;20934;-62
2021/12/04 06:27:39;;;;;;;19.75;13.00;;;;;;;-0.19;100.00;96791.91;10497808;28;20468;-59
2021/12/04 06:32:42;;;;;;;16.35;12.32;;;;;;;-0.19;100.00;96805.16;10496146;28;20516;-62
2021/12/04 06:37:48;;;;;;;17.83;13.20;;;;;;;-0.18;100.00;96808.66;10502989;28;20080;-62
2021/12/04 06:42:55;;;;;;;15.10;11.63;;;;;;;-0.17;100.00;96805.88;10494246;28;20453;-62
2021/12/04 06:48:00;;;;;;;15.30;11.85;;;;;;;-0.15;100.00;96800.44;10496278;28;20111;-63
2021/12/04 06:53:11;;;;;;;14.98;11.70;;;;;;;-0.14;100.00;96802.09;10497718;28;20040;-63
2021/12/04 06:58:16;;;;;;;13.38;10.63;;;;;;;-0.12;100.00;96804.63;10496432;28;20047;-62
2021/12/04 07:03:19;;;;;;;14.75;10.50;;;;;;;-0.11;100.00;96801.00;10489231;28;20032;-62
2021/12/04 07:08:24;;;;;;;14.48;10.05;;;;;;;-0.11;100.00;96801.84;10492994;28;20119;-63
2021/12/04 07:13:29;;;;;;;12.95;10.32;;;;;;;-0.08;100.00;96798.94;10492082;28;20043;-62
2021/12/04 07:18:32;;;;;;;16.15;11.40;;;;;;;-0.05;100.00;96795.19;10491315;28;20568;-62
2021/12/04 07:23:37;;;;;;;15.50;11.20;;;;;;;-0.03;100.00;96787.94;10489474;28;20572;-58
2021/12/04 07:28:45;;;;;;;14.43;11.00;;;;;;;-0.02;100.00;96779.84;10498328;28;20040;-57
2021/12/04 07:33:50;;;;;;;12.98;10.23;;;;;;;0.01;100.00;96775.25;10506165;28;20064;-60
2021/12/04 07:38:54;;;;;;;11.65;9.40;;;;;;;0.03;100.00;96765.38;10497524;28;20048;-62
2021/12/04 07:43:58;;;;;;;10.45;8.55;;;;;;;0.06;100.00;96759.81;10514913;28;20129;-60
2021/12/04 07:49:01;;;;;;;9.85;8.20;;;;;;;0.08;100.00;96747.25;10501868;28;20052;-63
2021/12/04 07:54:05;;;;;;;10.15;8.02;;;;;;;0.11;100.00;96747.00;10502916;28;20044;-65
2021/12/04 07:59:09;;;;;;;11.38;6.97;;;;;;;0.14;100.00;96744.06;10503803;28;20054;-62
2021/12/04 08:04:12;;;;;;;8.25;6.47;;;;;;;0.17;100.00;96730.56;10499963;28;20041;-61
2021/12/04 08:09:15;;;;;;;9.68;6.43;;;;;;;0.21;100.00;96737.25;10509247;28;20127;-60
2021/12/04 08:14:20;;;;;;;8.07;6.30;;;;;;;0.28;100.00;96750.78;10502127;28;20041;-60
2021/12/04 08:19:23;;;;;;;8.77;6.85;;;;;;;0.35;100.00;96748.41;10509813;28;20044;-60
2021/12/04 08:24:26;;;;;;;8.25;6.47;;;;;;;0.39;100.00;96741.88;10503485;28;20111;-63
2021/12/04 08:29:31;;;;;;;10.00;6.13;;;;;;;0.39;100.00;96728.63;10511108;28;20072;-62
2021/12/04 08:34:35;;;;;;;6.93;5.90;;;;;;;0.45;100.00;96725.41;10503485;28;20109;-63
2021/12/04 08:39:38;;;;;;;7.38;5.80;;;;;;;0.53;100.00;96730.00;10504957;28;20076;-61
2021/12/04 08:44:43;;;;;;;7.50;5.95;;;;;;;0.59;100.00;96730.28;10501162;28;20115;-60
2021/12/04 08:49:46;;;;;;;5.93;5.22;;;;;;;0.59;100.00;96730.28;10498766;28;20048;-61
2021/12/04 08:54:49;;;;;;;6.88;6.05;;;;;;;0.69;100.00;96729.44;10497004;28;20040;-61
2021/12/04 08:59:54;;;;;;;7.50;5.80;;;;;;;0.76;100.00;96731.38;10496186;28;20464;-60
2021/12/04 09:04:58;;;;;;;7.40;5.78;;;;;;;0.84;100.00;96725.38;10500206;28;20051;-60
2021/12/04 09:10:04;;;;;;;7.57;5.75;;;;;;;0.84;100.00;96724.53;10501182;28;20067;-65
2021/12/04 09:15:12;;;;;;;7.20;5.85;;;;;;;0.88;100.00;96724.09;10502959;28;20047;-63
2021/12/04 09:20:17;;;;;;;7.65;5.80;;;;;;;0.84;100.00;96727.19;10510224;28;20131;-65
2021/12/04 09:25:23;;;;;;;8.32;6.35;;;;;;;0.94;100.00;96732.47;10498058;28;20517;-64
2021/12/04 10:02:41;;;;;;;7.67;6.23;;;;;;;1.54;100.00;96692.31;10502414;28;20524;-65
2021/12/04 10:13:33;;;;;;;8.77;6.95;;;;;;;1.68;100.00;96678.56;10497273;28;20516;-65
2021/12/04 10:34:57;;;;;;;6.60;5.55;;;;;;;2.14;100.00;96652.00;10510023;28;20040;-62
2021/12/04 10:40:03;;;;;;;6.45;5.38;;;;;;;2.11;100.00;96652.28;10530022;28;20051;-66
2021/12/04 10:45:09;;;;;;;7.53;5.65;;;;;;;2.09;100.00;96642.81;10529656;27;20052;-64
2021/12/04 10:50:22;;;;;;;5.97;5.22;;;;;;;2.08;100.00;96636.66;10529154;28;20206;-64
2021/12/04 10:55:31;;;;;;;6.55;5.65;;;;;;;2.09;100.00;96626.88;10540053;28;20118;-64
2021/12/04 11:00:44;;;;;;;8.27;6.63;;;;;;;2.14;100.00;96616.63;10528858;28;20124;-64
2021/12/04 11:22:17;;;;;;;7.05;5.72;;;;;;;2.42;100.00;96589.94;10547331;28;20165;-67
2021/12/04 11:38:24;;;;;;;6.63;4.55;;;;;;;2.66;100.00;96560.00;10505055;28;20043;-64
2021/12/04 11:43:34;;;;;;;6.57;5.35;;;;;;;2.71;100.00;96552.41;10485695;28;20148;-66
2021/12/04 11:48:41;;;;;;;6.57;5.40;;;;;;;2.72;100.00;96564.72;10484274;28;20036;-64
2021/12/04 11:53:47;;;;;;;8.43;4.78;;;;;;;2.75;100.00;96559.09;10508390;28;20068;-64
2021/12/04 11:58:51;;;;;;;5.45;4.80;;;;;;;2.76;100.00;96547.44;10505786;28;20108;-64
2021/12/04 12:03:58;;;;;;;5.22;4.60;;;;;;;2.77;100.00;96535.81;10509934;28;20072;-63
2021/12/04 12:09:11;;;;;;;6.70;4.88;;;;;;;2.83;100.00;96525.53;10514805;28;20132;-62
2021/12/04 12:14:16;;;;;;;5.60;4.38;;;;;;;2.88;100.00;96528.56;10511735;28;20077;-65
2021/12/04 12:19:28;;;;;;;6.05;4.82;;;;;;;2.92;100.00;96517.44;10547982;28;20031;-64
2021/12/04 12:40:56;;;;;;;5.25;4.50;;;;;;;2.93;100.00;96494.31;10497054;28;20564;-63
2021/12/04 12:45:59;;;;;;;6.05;4.65;;;;;;;2.95;100.00;96489.69;10511654;28;20040;-64
2021/12/04 12:51:08;;;;;;;4.63;4.00;;;;;;;2.99;100.00;96480.41;10491954;28;20050;-65
2021/12/04 12:56:16;;;;;;;6.88;5.47;;;;;;;2.98;100.00;96468.09;10509106;28;20457;-63
2021/12/04 13:12:20;;;;;;;5.60;4.57;;;;;;;2.86;100.00;96456.09;10494096;28;20123;-64
2021/12/04 13:17:29;;;;;;;4.30;3.75;;;;;;;2.73;100.00;96446.72;10511345;28;20396;-65
2021/12/04 13:22:34;;;;;;;4.13;3.50;;;;;;;2.72;100.00;96446.88;10499245;28;20500;-65
2021/12/04 13:32:43;;;;;;;3.85;3.40;;;;;;;2.64;100.00;96462.81;10512270;28;20160;-64
2021/12/04 13:37:49;;;;;;;4.45;3.85;;;;;;;2.60;100.00;96457.78;10504079;28;20048;-62
2021/12/04 13:42:52;;;;;;;5.85;4.68;;;;;;;2.57;100.00;96452.81;10500090;28;20514;-63
2021/12/04 13:47:58;;;;;;;9.98;6.95;;;;;;;2.53;100.00;96448.00;10499376;28;20132;-63
2021/12/04 13:53:07;;;;;;;6.53;5.18;;;;;;;2.48;100.00;96435.16;10504039;28;20496;-63
2021/12/04 13:58:10;;;;;;;4.80;4.30;;;;;;;2.42;100.00;96431.31;10509095;28;20040;-65
2021/12/04 14:03:14;;;;;;;5.85;4.30;;;;;;;2.42;100.00;96422.50;10501212;28;20135;-66
2021/12/04 14:08:19;;;;;;;5.25;4.28;;;;;;;2.39;100.00;96425.47;10507636;28;20601;-64
2021/12/04 14:13:25;;;;;;;5.85;4.50;;;;;;;2.36;100.00;96417.81;10505730;28;20123;-64
2021/12/04 14:18:30;;;;;;;6.35;5.07;;;;;;;2.35;100.00;96398.41;10507980;28;20048;-64
2021/12/04 14:23:35;;;;;;;7.60;4.95;;;;;;;2.28;100.00;96386.75;10505361;28;20090;-64
2021/12/04 14:28:41;;;;;;;6.15;4.63;;;;;;;2.25;100.00;96379.09;10496414;28;20572;-63
2021/12/04 14:33:44;;;;;;;5.00;4.45;;;;;;;2.18;100.00;96389.53;10486035;28;20123;-65
2021/12/04 14:38:49;;;;;;;5.38;3.42;;;;;;;2.13;100.00;96390.00;10488932;28;20044;-65
2021/12/04 14:43:52;;;;;;;4.22;3.45;;;;;;;2.09;100.00;96388.66;10492110;28;20049;-65
2021/12/04 14:48:57;;;;;;;3.25;2.80;;;;;;;2.05;100.00;96389.97;10477331;28;20502;-64
2021/12/04 14:54:01;;;;;;;3.05;2.75;;;;;;;2.01;100.00;96404.53;10479976;28;20136;-64
2021/12/04 14:59:15;;;;;;;4.65;3.28;;;;;;;2.04;100.00;96396.28;10490745;28;20039;-65
2021/12/04 15:04:18;;;;;;;4.47;3.28;;;;;;;2.04;100.00;96390.97;10498335;28;20483;-65
2021/12/04 15:09:23;;;;;;;5.28;3.83;;;;;;;2.03;100.00;96399.91;10502665;28;20045;-65
2021/12/04 15:14:32;;;;;;;4.68;4.00;;;;;;;2.03;100.00;96394.59;10515122;28;20068;-64
2021/12/04 15:19:40;;;;;;;12.00;8.60;;;;;;;2.03;100.00;96389.28;10516127;28;20068;-65
2021/12/04 15:24:45;;;;;;;5.78;4.47;;;;;;;1.98;100.00;96380.94;10497873;28;20075;-64
2021/12/04 15:29:54;;;;;;;7.50;5.10;;;;;;;1.94;100.00;96382.28;10493196;28;20044;-62
2021/12/04 15:35:23;;;;;;;7.32;5.45;;;;;;;1.94;100.00;96383.09;10476862;28;20047;-64
2021/12/04 15:40:35;;;;;;;6.35;4.97;;;;;;;1.93;100.00;96384.09;10503381;28;20051;-63
2021/12/04 15:45:48;;;;;;;8.65;5.20;;;;;;;1.94;100.00;96382.28;10509577;28;20064;-66
2021/12/04 15:51:04;;;;;;;8.07;5.70;;;;;;;1.92;100.00;96370.97;10487155;28;20489;-63
2021/12/04 15:56:09;;;;;;;15.23;10.15;;;;;;;1.90;100.00;96373.78;10486436;28;20186;-64
2021/12/04 16:01:12;;;;;;;17.38;11.93;;;;;;;1.87;100.00;96362.63;10500661;28;20041;-61
2021/12/04 16:06:16;;;;;;;25.95;17.65;;;;;;;1.84;100.00;96359.31;10503670;28;20056;-62
2021/12/04 16:11:20;;;;;;;30.92;21.95;;;;;;;1.81;100.00;96354.34;10505984;28;20044;-58
2021/12/04 16:16:24;;;;;;;13.82;9.50;;;;;;;1.78;100.00;96351.97;10512794;28;20119;-61
2021/12/04 16:21:28;;;;;;;12.90;8.77;;;;;;;1.76;100.00;96337.22;10500713;28;20086;-60
2021/12/04 16:26:34;;;;;;;14.25;9.77;;;;;;;1.74;100.00;96347.16;10494003;28;20567;-62
2021/12/04 16:37:35;;;;;;;12.43;8.80;;;;;;;1.73;100.00;96324.25;10365007;28;20128;-57
2021/12/04 16:42:43;;;;;;;16.88;11.13;;;;;;;1.71;100.00;96319.06;10462525;28;20051;-60
2021/12/04 16:47:56;;;;;;;14.50;10.75;;;;;;;1.69;100.00;96316.59;10500405;28;20048;-59
2021/12/04 16:58:21;;;;;;;19.20;13.43;;;;;;;1.69;100.00;96329.03;10505872;28;20051;-60
2021/12/04 17:03:25;;;;;;;19.55;12.70;;;;;;;1.68;100.00;96311.44;10500721;28;20154;-68
2021/12/04 17:08:32;;;;;;;22.27;14.75;;;;;;;1.71;100.00;96315.59;10499950;28;20047;-61
2021/12/04 17:13:36;;;;;;;20.30;13.55;;;;;;;1.72;100.00;96318.09;10506691;28;20102;-55
2021/12/04 17:18:46;;;;;;;19.27;13.45;;;;;;;1.72;100.00;96312.78;10502952;28;20160;-59
2021/12/04 17:23:49;;;;;;;18.88;13.55;;;;;;;1.72;100.00;96315.44;10506726;28;20555;-59
2021/12/04 17:28:55;;;;;;;22.05;14.93;;;;;;;1.72;100.00;96315.44;10514757;28;20084;-65
2021/12/04 17:34:00;;;;;;;20.75;15.05;;;;;;;1.72;100.00;96312.78;10492344;28;20505;-58
2021/12/04 17:39:05;;;;;;;21.20;15.27;;;;;;;1.73;100.00;96308.31;10508252;28;20068;-61
2021/12/04 17:44:14;;;;;;;19.67;14.30;;;;;;;1.74;100.00;96310.81;10499467;28;20487;-62
2021/12/04 17:49:17;;;;;;;20.25;14.82;;;;;;;1.75;100.00;96311.66;10493813;28;20092;-62
2021/12/04 17:54:21;;;;;;;20.77;14.75;;;;;;;1.77;100.00;96309.66;10494867;28;20632;-65
2021/12/04 17:59:29;;;;;;;23.20;16.30;;;;;;;1.77;100.00;96307.84;10494610;28;20465;-66
2021/12/04 18:04:35;;;;;;;21.30;14.13;;;;;;;1.77;100.00;96299.88;10496023;28;20067;-62
2021/12/04 18:09:39;;;;;;;20.60;14.75;;;;;;;1.78;100.00;96296.22;10498909;28;20106;-61
2021/12/04 18:14:47;;;;;;;21.00;15.32;;;;;;;1.78;100.00;96293.59;10497702;28;20094;-63
2021/12/04 18:19:50;;;;;;;19.15;14.25;;;;;;;1.78;100.00;96282.97;10493706;28;20429;-60
2021/12/04 18:24:54;;;;;;;21.45;14.88;;;;;;;1.77;100.00;96277.78;10501544;28;20071;-60
2021/12/04 18:29:59;;;;;;;21.05;14.50;;;;;;;1.76;100.00;96276.97;10490339;28;20048;-61
2021/12/04 18:35:02;;;;;;;21.73;15.95;;;;;;;1.78;100.00;96264.38;10495969;28;20033;-63
2021/12/04 18:40:09;;;;;;;37.47;23.92;;;;;;;1.79;100.00;96262.53;10495042;22;20059;-59
2021/12/04 18:45:15;;;;;;;21.85;15.57;;;;;;;1.79;100.00;96247.47;10409787;28;20046;-57
2021/12/04 18:50:19;;;;;;;23.77;17.10;;;;;;;1.80;100.00;96243.81;10417765;28;20490;-59
2021/12/04 18:55:23;;;;;;;20.67;15.18;;;;;;;1.80;100.00;96233.19;10403960;28;20148;-59
2021/12/04 19:00:43;;;;;;;20.63;14.68;;;;;;;1.83;100.00;96237.34;10405935;28;20060;-57
2021/12/04 19:05:49;;;;;;;20.27;15.35;;;;;;;1.84;100.00;96218.59;10375770;28;20481;-58
2021/12/04 19:10:52;;;;;;;23.40;16.88;;;;;;;1.85;100.00;96214.94;10370258;28;20045;-55
2021/12/04 19:15:57;;;;;;;21.98;15.02;;;;;;;1.85;100.00;96214.94;10369755;28;20077;-60
2021/12/04 19:21:02;;;;;;;22.98;16.10;;;;;;;1.89;100.00;96227.91;10405210;28;20052;-56
2021/12/04 19:26:07;;;;;;;21.60;15.52;;;;;;;1.90;100.00;96226.94;10388103;28;20210;-59
2021/12/04 19:31:16;;;;;;;23.63;15.80;;;;;;;1.92;100.00;96240.88;10402715;28;20124;-59
2021/12/04 19:53:03;;;;;;;;;;;;;;;2.04;100.00;96257.31;10336966;28;20127;-57
2021/12/04 19:58:06;;;;;;;22.52;14.75;;;;;;;2.09;100.00;96263.81;10374051;28;20023;-58
2021/12/04 20:03:17;;;;;;;22.25;15.27;;;;;;;2.13;100.00;96269.63;10406563;28;20565;-58
2021/12/04 20:08:45;;;;;;;21.45;15.13;;;;;;;2.13;100.00;96270.47;10398505;28;20049;-59
2021/12/04 20:13:48;;;;;;;27.10;17.63;;;;;;;2.15;100.00;96275.63;10404230;28;20044;-58
2021/12/04 20:19:00;;;;;;;26.35;18.10;;;;;;;2.15;100.00;96287.09;10398356;28;20041;-55
2021/12/04 20:24:03;;;;;;;28.83;18.03;;;;;;;2.17;100.00;96286.09;10384917;28;20136;-59
2021/12/04 20:29:18;;;;;;;23.63;16.02;;;;;;;2.19;100.00;96297.38;10401684;28;20630;-59
2021/12/04 20:34:43;;;;;;;24.95;16.10;;;;;;;2.21;100.00;96306.88;10401992;28;20512;-60
2021/12/04 21:12:38;;;;;;;8.20;5.78;;;;;;;2.58;100.00;96340.19;10372907;28;20068;-59
2021/12/04 21:49:52;;;;;;;5.30;3.83;;;;;;;2.87;100.00;96408.03;10563091;28;20818;-57
2021/12/04 21:54:56;;;;;;;4.95;3.33;;;;;;;3.00;100.00;96423.50;10562066;28;20063;-56
2021/12/04 22:10:47;;;;;;;4.22;3.10;;;;;;;3.26;100.00;96443.03;10559002;28;19924;-56
2021/12/04 22:22:01;;;;;;;;;;;;;;;3.24;100.00;96467.97;10561207;28;20115;-56
2021/12/04 22:59:15;;;;;;;2.30;1.90;;;;;;;3.29;100.00;96522.56;10532884;28;20799;-54
2021/12/04 23:04:37;;;;;;;2.13;1.67;;;;;;;3.24;100.00;96531.00;10532664;28;20491;-54
2021/12/04 23:15:10;;;;;;;1.60;1.50;;;;;;;3.31;100.00;96517.88;10529929;28;20044;-56
2021/12/04 23:36:32;;;;;;;2.00;1.80;;;;;;;3.37;100.00;96547.34;10530673;28;20051;-52
